Time;durP1;ratioP1;P1;durP2;ratioP2;P2;SDS_P1;SDS_P2;PMS_P1;PMS_P2;Temp;Humidity;BMP_temperature;BMP_pressure;BME280_temperature;BME280_humidity;BME280_pressure;Samples;Min_cycle;Max_cycle;Signal;HPM_P1;HPM_P2
2021/04/10 00:01:59;;;;;;;9.68;5.50;;;10.80;69.20;;;;;;5026037;28;20116;-72
2021/04/10 00:04:25;;;;;;;7.60;5.53;;;10.80;69.70;;;;;;5023826;28;20029;-72
2021/04/10 00:06:50;;;;;;;9.75;6.10;;;10.70;69.90;;;;;;5025659;28;20468;-70
2021/04/10 00:09:16;;;;;;;8.90;5.82;;;10.70;70.10;;;;;;5031210;28;20034;-71
2021/04/10 00:11:42;;;;;;;8.80;5.70;;;10.60;72.60;;;;;;5029475;28;20040;-72
2021/04/10 00:14:10;;;;;;;9.95;5.57;;;10.50;72.10;;;;;;5032274;28;20553;-72
2021/04/10 00:16:36;;;;;;;8.82;6.55;;;10.50;72.30;;;;;;5026965;28;20032;-71
2021/04/10 00:19:02;;;;;;;11.13;6.53;;;10.40;72.70;;;;;;5024221;28;20445;-72
2021/04/10 00:21:27;;;;;;;10.55;5.70;;;10.30;73.40;;;;;;5027409;28;20778;-72
2021/04/10 00:23:53;;;;;;;7.53;5.45;;;10.30;73.70;;;;;;5021125;28;20069;-72
2021/04/10 00:26:19;;;;;;;11.07;6.57;;;10.20;73.60;;;;;;5025241;28;20034;-72
2021/04/10 00:28:44;;;;;;;12.65;6.03;;;10.10;73.80;;;;;;5030152;28;20026;-72
2021/04/10 00:31:10;;;;;;;9.00;5.78;;;10.10;74.20;;;;;;5023559;28;20868;-72
2021/04/10 00:33:37;;;;;;;11.85;6.60;;;10.00;74.30;;;;;;5030708;28;20024;-72
2021/04/10 00:36:07;;;;;;;9.98;6.32;;;10.00;73.90;;;;;;5026230;28;20026;-72
2021/04/10 00:38:34;;;;;;;8.70;5.70;;;10.00;74.90;;;;;;5030141;28;20017;-72
2021/04/10 00:41:01;;;;;;;8.05;5.78;;;9.90;74.50;;;;;;5024750;28;20027;-72
2021/04/10 00:43:27;;;;;;;10.60;6.07;;;9.90;76.00;;;;;;5025773;28;20077;-72
2021/04/10 00:45:53;;;;;;;12.73;6.50;;;9.80;75.40;;;;;;5027958;28;20420;-71
2021/04/10 00:48:20;;;;;;;9.25;5.72;;;9.80;75.60;;;;;;5038325;28;20045;-72
2021/04/10 00:50:45;;;;;;;11.43;6.68;;;9.80;76.80;;;;;;5029251;28;20036;-72
2021/04/10 00:53:12;;;;;;;8.15;5.90;;;9.80;77.80;;;;;;5027552;28;20033;-71
2021/04/10 00:55:40;;;;;;;10.27;6.25;;;9.80;77.80;;;;;;5023890;28;20107;-72
2021/04/10 00:58:06;;;;;;;8.75;6.00;;;9.70;77.90;;;;;;5027384;28;20037;-72
2021/04/10 01:00:31;;;;;;;8.02;5.78;;;9.70;78.60;;;;;;5025977;28;21711;-72
2021/04/10 01:02:57;;;;;;;7.85;5.72;;;9.70;79.30;;;;;;5026682;28;20029;-71
2021/04/10 01:05:22;;;;;;;9.25;6.00;;;9.60;79.70;;;;;;5021370;28;20036;-72
2021/04/10 01:07:48;;;;;;;9.55;6.30;;;9.50;80.80;;;;;;5025414;28;20115;-72
2021/04/10 01:10:14;;;;;;;10.02;5.68;;;9.50;81.50;;;;;;5028710;28;20030;-72
2021/04/10 01:13:12;;;;;;;9.25;5.32;;;9.40;81.70;;;;;;5021024;28;20448;-72
2021/04/10 01:15:40;;;;;;;7.95;5.55;;;9.30;82.60;;;;;;5027816;28;20041;-72
2021/04/10 01:18:13;;;;;;;11.90;5.60;;;9.20;83.80;;;;;;5028630;28;20029;-74
2021/04/10 01:21:02;;;;;;;11.13;5.80;;;9.10;83.90;;;;;;5028859;28;20030;-74
2021/04/10 01:23:49;;;;;;;7.68;5.40;;;9.10;84.70;;;;;;5027882;28;20038;-73
2021/04/10 01:26:51;;;;;;;9.00;5.20;;;9.00;85.40;;;;;;5030386;28;20542;-73
2021/04/10 01:29:18;;;;;;;9.07;5.38;;;8.90;86.30;;;;;;5029419;28;20038;-73
2021/04/10 01:31:53;;;;;;;7.57;5.40;;;8.80;87.10;;;;;;5036796;28;20053;-73
2021/04/10 01:34:26;;;;;;;9.23;6.05;;;8.80;87.30;;;;;;5028614;28;20022;-73
2021/04/10 01:36:53;;;;;;;8.70;5.95;;;8.70;88.70;;;;;;5035672;28;20025;-73
2021/04/10 01:39:20;;;;;;;9.38;5.60;;;8.70;87.70;;;;;;5027592;28;20076;-73
2021/04/10 01:41:48;;;;;;;12.65;6.03;;;8.70;88.90;;;;;;5026896;28;20121;-73
2021/04/10 01:44:15;;;;;;;10.85;5.28;;;8.60;90.10;;;;;;5034903;28;20033;-73
2021/04/10 01:46:41;;;;;;;6.50;4.97;;;8.60;90.20;;;;;;5029532;28;20091;-73
2021/04/10 01:49:08;;;;;;;8.90;5.45;;;8.50;90.70;;;;;;5032409;28;20046;-74
2021/04/10 01:51:35;;;;;;;9.68;4.95;;;8.50;90.70;;;;;;5023801;28;20025;-73
2021/04/10 01:54:02;;;;;;;7.43;5.15;;;8.50;91.20;;;;;;5031451;28;20028;-73
2021/04/10 01:56:31;;;;;;;10.75;5.60;;;8.40;91.30;;;;;;5029855;28;20036;-73
2021/04/10 01:58:57;;;;;;;8.15;4.95;;;8.40;91.30;;;;;;5031466;28;20032;-73
2021/04/10 02:01:24;;;;;;;12.90;5.30;;;8.40;91.10;;;;;;5016019;28;20494;-73
2021/04/10 02:03:50;;;;;;;10.07;5.82;;;8.40;91.70;;;;;;5026369;28;20040;-74
2021/04/10 02:06:17;;;;;;;7.03;4.93;;;8.30;91.80;;;;;;5028172;28;20021;-73
2021/04/10 02:08:43;;;;;;;6.28;4.90;;;8.20;92.00;;;;;;5032245;28;20120;-73
2021/04/10 02:11:11;;;;;;;7.72;5.28;;;8.20;92.50;;;;;;5027214;28;20104;-73
2021/04/10 02:13:38;;;;;;;8.15;4.93;;;8.20;92.10;;;;;;5022120;28;20022;-74
2021/04/10 02:16:04;;;;;;;6.95;4.90;;;8.20;92.30;;;;;;5028272;28;20064;-73
2021/04/10 02:18:30;;;;;;;7.82;4.88;;;8.20;93.00;;;;;;5032927;28;20029;-73
2021/04/10 02:20:58;;;;;;;10.43;4.68;;;8.20;93.40;;;;;;5027430;28;20025;-73
2021/04/10 02:23:24;;;;;;;7.43;4.90;;;8.20;93.20;;;;;;5024987;28;20036;-73
2021/04/10 02:25:49;;;;;;;8.55;5.22;;;8.30;93.40;;;;;;5026648;28;20022;-73
2021/04/10 02:28:15;;;;;;;9.02;5.50;;;8.30;93.70;;;;;;5025959;28;20018;-73
2021/04/10 02:30:41;;;;;;;9.13;5.00;;;8.30;93.40;;;;;;5028145;28;20396;-73
2021/04/10 02:33:17;;;;;;;7.72;4.72;;;8.30;93.60;;;;;;5029271;28;20037;-73
2021/04/10 02:35:47;;;;;;;10.63;5.55;;;8.40;94.90;;;;;;5017012;28;20026;-73
2021/04/10 02:38:16;;;;;;;7.55;4.90;;;8.40;94.40;;;;;;5026924;28;20040;-73
2021/04/10 02:40:45;;;;;;;8.23;5.03;;;8.40;94.50;;;;;;5025982;28;20052;-74
2021/04/10 02:43:16;;;;;;;6.97;5.05;;;8.40;95.20;;;;;;5028015;28;20033;-74
2021/04/10 02:45:43;;;;;;;;;;;8.50;94.10;;;;;;5027173;28;20040;-73
2021/04/10 02:48:12;;;;;;;10.05;4.82;;;8.50;94.50;;;;;;5030332;28;19996;-74
2021/04/10 02:50:39;;;;;;;8.80;4.93;;;8.40;95.20;;;;;;5018157;28;20396;-73
2021/04/10 02:53:07;;;;;;;8.82;5.10;;;8.40;95.50;;;;;;5027318;28;20025;-73
2021/04/10 02:55:45;;;;;;;9.63;5.07;;;8.50;95.70;;;;;;5025850;28;20025;-73
2021/04/10 02:58:12;;;;;;;11.43;5.10;;;8.50;95.60;;;;;;5020662;28;20013;-74
2021/04/10 03:00:41;;;;;;;9.07;5.40;;;8.50;96.30;;;;;;5016485;28;20025;-74
2021/04/10 03:03:10;;;;;;;9.13;5.50;;;8.50;96.70;;;;;;5028798;28;20658;-75
2021/04/10 03:05:38;;;;;;;8.35;5.57;;;8.50;96.40;;;;;;5015554;28;20029;-73
2021/04/10 03:08:06;;;;;;;10.85;4.95;;;8.60;97.00;;;;;;5020243;28;20377;-74
2021/04/10 03:10:32;;;;;;;7.95;5.22;;;8.60;97.20;;;;;;5025381;28;20563;-73
2021/04/10 03:12:58;;;;;;;8.77;4.95;;;8.60;97.40;;;;;;5022846;28;20105;-73
2021/04/10 03:15:23;;;;;;;9.50;5.47;;;8.60;98.30;;;;;;5037126;28;20025;-74
2021/04/10 03:17:50;;;;;;;7.07;4.97;;;8.50;97.90;;;;;;5023736;28;20049;-73
2021/04/10 03:20:17;;;;;;;7.78;5.03;;;8.60;97.90;;;;;;5026903;28;20116;-73
2021/04/10 03:22:47;;;;;;;8.48;4.95;;;8.50;97.60;;;;;;5025537;28;20057;-73
2021/04/10 03:25:13;;;;;;;7.45;4.57;;;8.50;99.40;;;;;;5016160;28;20492;-73
2021/04/10 03:27:41;;;;;;;7.70;5.30;;;8.50;99.70;;;;;;5028877;28;20043;-73
2021/04/10 03:30:08;;;;;;;12.20;5.38;;;8.50;99.90;;;;;;5020393;28;20058;-73
2021/04/10 03:32:35;;;;;;;8.15;5.18;;;8.50;99.90;;;;;;5023785;28;20566;-73
2021/04/10 03:35:01;;;;;;;10.13;5.15;;;8.50;99.90;;;;;;5030535;28;20112;-73
2021/04/10 03:37:30;;;;;;;8.20;5.07;;;8.50;99.90;;;;;;5022306;28;20181;-74
2021/04/10 03:39:56;;;;;;;11.18;5.45;;;8.50;99.90;;;;;;5024423;28;20026;-74
2021/04/10 03:42:42;;;;;;;11.07;5.75;;;8.50;99.90;;;;;;5013168;28;20041;-73
2021/04/10 03:45:13;;;;;;;10.18;5.43;;;8.50;99.90;;;;;;5034592;28;20120;-74
2021/04/10 03:47:38;;;;;;;8.63;5.30;;;8.50;99.90;;;;;;5016301;28;20040;-73
2021/04/10 03:50:08;;;;;;;11.20;5.80;;;8.50;99.90;;;;;;5014596;28;20038;-74
2021/04/10 03:52:34;;;;;;;8.85;5.75;;;8.50;99.90;;;;;;5023860;28;20025;-73
2021/04/10 03:55:00;;;;;;;10.32;5.90;;;8.50;99.90;;;;;;5018903;28;20026;-74
2021/04/10 03:57:27;;;;;;;8.02;5.35;;;8.50;99.90;;;;;;5026526;28;20166;-74
2021/04/10 03:59:53;;;;;;;9.77;5.90;;;8.50;99.90;;;;;;5022528;28;20057;-74
2021/04/10 04:02:18;;;;;;;9.45;5.65;;;8.50;99.90;;;;;;5026627;28;20538;-73
2021/04/10 04:04:44;;;;;;;9.63;5.13;;;8.50;99.90;;;;;;5031538;28;20124;-73
2021/04/10 04:07:09;;;;;;;8.50;5.32;;;8.50;99.90;;;;;;5025401;28;20026;-73
2021/04/10 04:09:36;;;;;;;8.02;5.28;;;8.50;99.90;;;;;;5024666;28;20133;-73
2021/04/10 04:12:02;;;;;;;10.10;5.30;;;8.50;99.90;;;;;;5021461;28;20462;-74
2021/04/10 04:14:27;;;;;;;8.82;5.65;;;8.50;99.90;;;;;;5025096;28;20120;-74
2021/04/10 04:16:53;;;;;;;7.97;5.18;;;8.50;99.90;;;;;;5014493;28;20420;-73
2021/04/10 04:19:18;;;;;;;11.77;5.32;;;8.50;99.90;;;;;;5029834;28;20026;-73
2021/04/10 04:21:44;;;;;;;8.73;5.20;;;8.50;99.90;;;;;;5023844;28;20034;-73
2021/04/10 04:24:09;;;;;;;9.65;5.30;;;8.50;99.90;;;;;;5029791;28;20438;-73
2021/04/10 04:26:35;;;;;;;11.18;5.50;;;8.50;99.90;;;;;;5025220;28;20491;-73
2021/04/10 04:29:00;;;;;;;10.60;6.13;;;8.50;99.90;;;;;;5031944;28;20036;-73
2021/04/10 04:31:26;;;;;;;8.90;5.35;;;8.50;99.90;;;;;;5028080;28;20544;-73
2021/04/10 04:33:51;;;;;;;9.55;5.75;;;8.50;99.90;;;;;;5024120;28;20057;-73
2021/04/10 04:36:17;;;;;;;7.25;5.07;;;8.50;99.90;;;;;;5027361;28;20469;-74
2021/04/10 04:38:42;;;;;;;9.65;5.60;;;8.50;99.90;;;;;;5023933;28;20115;-74
2021/04/10 04:41:08;;;;;;;7.75;5.53;;;8.40;99.90;;;;;;5029959;28;20033;-72
2021/04/10 04:43:34;;;;;;;8.98;5.75;;;8.40;99.90;;;;;;5030110;28;20399;-72
2021/04/10 04:45:59;;;;;;;8.57;5.47;;;8.40;99.90;;;;;;5023483;28;20026;-72
2021/04/10 04:48:34;;;;;;;10.48;5.60;;;8.40;99.90;;;;;;5026740;28;20563;-73
2021/04/10 04:51:00;;;;;;;7.80;5.28;;;8.40;99.90;;;;;;5023110;28;20045;-70
2021/04/10 04:53:25;;;;;;;8.68;5.57;;;8.40;99.90;;;;;;5031280;28;20480;-69
2021/04/10 04:55:51;;;;;;;9.50;6.22;;;8.40;99.90;;;;;;5026815;28;21919;-70
2021/04/10 04:58:16;;;;;;;13.63;5.90;;;8.40;99.90;;;;;;5031740;28;20021;-69
2021/04/10 05:00:42;;;;;;;8.10;5.82;;;8.40;99.90;;;;;;5024680;28;20033;-70
2021/04/10 05:03:07;;;;;;;10.27;6.05;;;8.40;99.90;;;;;;5028181;28;20458;-70
2021/04/10 05:05:33;;;;;;;9.07;5.72;;;8.40;99.90;;;;;;5023526;28;20477;-70
2021/04/10 05:07:58;;;;;;;9.05;5.55;;;8.50;99.90;;;;;;5031560;28;20112;-70
2021/04/10 05:10:24;;;;;;;10.98;5.95;;;8.50;99.90;;;;;;5028131;28;20055;-70
2021/04/10 05:12:52;;;;;;;10.80;6.50;;;8.50;99.90;;;;;;5031641;28;20034;-70
2021/04/10 05:15:17;;;;;;;8.77;5.78;;;8.50;99.90;;;;;;5022896;28;20026;-70
2021/04/10 05:17:43;;;;;;;8.05;5.40;;;8.60;99.90;;;;;;5027099;28;20477;-71
2021/04/10 05:20:08;;;;;;;10.40;5.70;;;8.60;99.90;;;;;;5021856;28;20661;-71
2021/04/10 05:22:35;;;;;;;9.77;6.05;;;8.50;99.90;;;;;;5025818;28;20029;-71
2021/04/10 05:25:01;;;;;;;12.43;5.40;;;8.50;99.90;;;;;;5024632;28;20404;-71
2021/04/10 05:27:26;;;;;;;13.00;6.22;;;8.60;99.90;;;;;;5026178;28;20025;-71
2021/04/10 05:29:52;;;;;;;8.38;5.53;;;8.60;99.90;;;;;;5026611;28;20976;-71
2021/04/10 05:32:17;;;;;;;9.40;6.03;;;8.60;99.90;;;;;;5033736;28;20025;-71
2021/04/10 05:34:43;;;;;;;8.07;5.43;;;8.60;99.90;;;;;;5020502;28;20083;-71
2021/04/10 05:37:08;;;;;;;10.15;5.70;;;8.60;99.90;;;;;;5029873;28;20035;-71
2021/04/10 05:39:34;;;;;;;8.98;6.07;;;8.50;99.90;;;;;;5027770;28;20109;-71
2021/04/10 05:42:00;;;;;;;10.15;6.10;;;8.50;99.90;;;;;;5024195;28;20428;-71
2021/04/10 05:44:26;;;;;;;8.40;5.57;;;8.50;99.90;;;;;;5028374;28;20068;-71
2021/04/10 05:46:51;;;;;;;8.48;5.90;;;8.50;99.90;;;;;;5026760;28;20089;-72
2021/04/10 05:49:16;;;;;;;7.20;5.20;;;8.60;99.90;;;;;;5021346;28;20044;-71
2021/04/10 05:51:42;;;;;;;12.20;6.15;;;8.60;99.90;;;;;;5030277;28;20053;-71
2021/04/10 05:54:08;;;;;;;6.47;4.82;;;8.60;99.90;;;;;;5023749;28;20525;-71
2021/04/10 05:56:37;;;;;;;9.55;5.38;;;8.60;99.90;;;;;;5025725;28;20064;-71
2021/04/10 05:59:05;;;;;;;7.65;5.32;;;8.60;99.90;;;;;;5026155;28;20025;-71
2021/04/10 06:01:31;;;;;;;7.65;5.32;;;8.60;99.90;;;;;;5025542;28;20029;-71
2021/04/10 06:03:57;;;;;;;9.00;5.82;;;8.60;99.90;;;;;;5019648;28;20061;-71
2021/04/10 06:06:23;;;;;;;13.15;7.85;;;8.60;99.90;;;;;;5038327;28;20037;-71
2021/04/10 06:08:50;;;;;;;17.52;9.48;;;8.60;99.90;;;;;;5035676;28;20037;-71
2021/04/10 06:11:16;;;;;;;17.70;9.02;;;8.60;99.90;;;;;;5026457;28;20032;-71
2021/04/10 06:13:41;;;;;;;22.70;10.30;;;8.60;99.90;;;;;;5029719;28;20124;-71
2021/04/10 06:16:10;;;;;;;16.40;9.43;;;8.60;99.90;;;;;;5031919;28;20047;-71
2021/04/10 06:18:36;;;;;;;11.98;7.90;;;8.70;99.90;;;;;;5024362;28;20026;-69
2021/04/10 06:21:03;;;;;;;11.38;6.75;;;8.60;99.90;;;;;;5021755;28;20680;-70
2021/04/10 06:23:28;;;;;;;12.27;6.53;;;8.60;99.90;;;;;;5015850;28;20037;-71
2021/04/10 06:25:54;;;;;;;9.82;6.35;;;8.60;99.90;;;;;;5025551;28;20376;-71
2021/04/10 06:28:19;;;;;;;54.60;16.88;;;8.60;99.90;;;;;;5020930;28;20030;-71
2021/04/10 06:30:45;;;;;;;49.45;19.17;;;8.60;99.90;;;;;;5027737;28;20029;-72
2021/04/10 06:33:10;;;;;;;22.55;12.48;;;8.60;99.90;;;;;;5013795;28;20033;-74
2021/04/10 06:35:36;;;;;;;12.52;6.28;;;8.60;99.90;;;;;;5027340;28;20025;-75
2021/04/10 06:38:02;;;;;;;10.40;6.55;;;8.50;99.90;;;;;;5024482;28;20437;-75
2021/04/10 06:40:30;;;;;;;10.55;6.45;;;8.60;99.90;;;;;;5027143;28;20034;-75
2021/04/10 06:42:57;;;;;;;12.15;6.65;;;8.50;99.90;;;;;;5016892;28;20029;-75
2021/04/10 06:45:22;;;;;;;8.07;5.60;;;8.50;99.90;;;;;;5013720;28;20031;-75
2021/04/10 06:47:53;;;;;;;8.50;5.18;;;8.50;99.90;;;;;;5027403;28;20112;-74
2021/04/10 06:50:18;;;;;;;8.48;5.60;;;8.50;99.90;;;;;;5021771;28;20045;-74
2021/04/10 06:52:46;;;;;;;8.52;5.18;;;8.40;99.90;;;;;;5025392;28;20029;-75
2021/04/10 06:55:14;;;;;;;9.70;5.25;;;8.40;99.90;;;;;;5026281;28;20029;-75
2021/04/10 06:57:51;;;;;;;7.78;4.50;;;8.40;99.90;;;;;;5024048;28;20045;-74
2021/04/10 07:00:18;;;;;;;10.50;5.07;;;8.40;99.90;;;;;;5026793;28;20100;-75
2021/04/10 07:02:45;;;;;;;11.65;5.45;;;8.40;99.90;;;;;;5026607;28;20057;-74
2021/04/10 07:05:11;;;;;;;10.25;4.55;;;8.50;99.90;;;;;;5026063;28;20045;-74
2021/04/10 07:07:37;;;;;;;6.43;4.65;;;8.40;99.90;;;;;;5025410;28;20056;-75
2021/04/10 07:10:04;;;;;;;7.57;4.10;;;8.40;99.90;;;;;;5021867;28;20037;-75
2021/04/10 07:12:30;;;;;;;9.68;4.70;;;8.50;99.90;;;;;;5024926;28;20123;-75
2021/04/10 07:14:56;;;;;;;7.72;4.90;;;8.40;99.90;;;;;;5026506;28;21612;-75
2021/04/10 07:17:21;;;;;;;8.45;4.20;;;8.40;99.90;;;;;;5028221;28;20548;-74
2021/04/10 07:19:48;;;;;;;6.75;4.20;;;8.50;99.90;;;;;;5026485;28;20055;-74
2021/04/10 07:22:15;;;;;;;9.80;4.35;;;8.50;99.90;;;;;;5014545;28;20041;-74
2021/04/10 07:24:42;;;;;;;7.25;4.22;;;8.50;99.90;;;;;;5024119;28;20191;-74
2021/04/10 07:27:11;;;;;;;9.55;4.30;;;8.50;99.90;;;;;;5016047;28;20057;-74
2021/04/10 07:29:39;;;;;;;9.30;3.65;;;8.50;99.90;;;;;;5019373;28;20025;-74
2021/04/10 07:32:27;;;;;;;7.55;3.80;;;8.50;99.90;;;;;;5026859;28;20033;-74
2021/04/10 07:34:53;;;;;;;6.90;4.25;;;8.50;99.90;;;;;;5027247;28;20137;-74
2021/04/10 07:37:33;;;;;;;6.85;3.90;;;8.50;99.90;;;;;;5026367;28;20178;-74
2021/04/10 07:40:01;;;;;;;10.05;4.57;;;8.60;99.90;;;;;;5024553;28;20448;-75
2021/04/10 07:42:28;;;;;;;10.18;4.10;;;8.60;99.90;;;;;;5027231;28;20068;-74
2021/04/10 07:44:54;;;;;;;8.50;4.45;;;8.70;99.90;;;;;;5020293;28;20028;-71
2021/04/10 07:47:38;;;;;;;10.52;4.60;;;8.70;99.90;;;;;;5031288;28;20484;-70
2021/04/10 07:50:20;;;;;;;10.98;4.88;;;8.80;99.90;;;;;;5024995;28;20044;-70
2021/04/10 07:52:47;;;;;;;8.18;4.95;;;8.90;99.90;;;;;;5020178;28;20582;-70
2021/04/10 07:55:39;;;;;;;9.30;4.72;;;9.00;99.90;;;;;;5024997;28;20472;-73
2021/04/10 07:58:20;;;;;;;8.60;4.55;;;9.10;99.90;;;;;;5026260;28;20034;-74
2021/04/10 08:00:46;;;;;;;8.30;4.45;;;9.10;99.90;;;;;;5026286;28;20183;-74
2021/04/10 08:03:23;;;;;;;11.82;4.53;;;9.30;99.90;;;;;;5026949;28;20551;-74
2021/04/10 08:05:48;;;;;;;7.05;4.60;;;9.40;99.90;;;;;;5025478;28;20045;-74
2021/04/10 08:08:25;;;;;;;9.57;4.10;;;9.40;99.90;;;;;;5023664;28;20036;-73
2021/04/10 08:11:04;;;;;;;10.02;4.07;;;9.40;99.90;;;;;;5025176;28;20090;-73
2021/04/10 08:13:30;;;;;;;6.60;4.10;;;9.40;99.90;;;;;;5025608;28;20065;-71
2021/04/10 08:16:15;;;;;;;8.57;4.13;;;9.50;99.90;;;;;;5029131;28;20404;-71
2021/04/10 08:18:58;;;;;;;9.70;4.10;;;9.50;99.90;;;;;;5040102;28;20025;-72
2021/04/10 08:21:45;;;;;;;7.25;3.78;;;9.50;99.90;;;;;;5021822;28;20044;-72
2021/04/10 08:24:19;;;;;;;6.15;3.70;;;9.60;99.90;;;;;;5021276;28;20021;-73
2021/04/10 08:26:45;;;;;;;9.00;4.22;;;9.80;99.90;;;;;;5022599;28;20048;-71
2021/04/10 08:29:11;;;;;;;7.38;3.85;;;9.90;99.90;;;;;;5027365;28;20457;-71
2021/04/10 08:31:36;;;;;;;5.88;3.85;;;10.00;99.90;;;;;;5032579;28;20034;-71
2021/04/10 08:34:03;;;;;;;12.18;3.90;;;10.10;99.90;;;;;;5020936;28;20021;-72
2021/04/10 08:36:31;;;;;;;7.22;3.50;;;10.20;99.90;;;;;;5024682;28;20042;-71
2021/04/10 08:38:57;;;;;;;9.30;3.40;;;10.30;99.90;;;;;;5028212;28;20053;-71
2021/04/10 08:41:27;;;;;;;7.68;2.85;;;10.40;99.90;;;;;;5029589;28;20064;-72
2021/04/10 08:43:53;;;;;;;5.30;3.10;;;10.40;99.90;;;;;;5020109;28;20392;-72
2021/04/10 08:46:20;;;;;;;6.78;2.95;;;10.40;99.90;;;;;;5018670;28;20034;-72
2021/04/10 08:48:51;;;;;;;5.88;3.15;;;10.40;99.90;;;;;;5024716;28;20088;-72
2021/04/10 08:51:18;;;;;;;5.10;2.83;;;10.50;99.90;;;;;;5016350;28;20104;-72
2021/04/10 08:53:50;;;;;;;7.05;3.85;;;10.50;99.90;;;;;;5029695;28;20025;-72
2021/04/10 08:56:21;;;;;;;5.97;3.42;;;10.50;99.90;;;;;;5023558;28;20021;-72
2021/04/10 08:58:48;;;;;;;4.78;3.05;;;10.60;99.90;;;;;;5026565;28;20034;-71
2021/04/10 09:01:23;;;;;;;8.57;2.97;;;10.60;99.90;;;;;;5029707;28;20452;-71
2021/04/10 09:03:53;;;;;;;9.45;3.20;;;10.70;99.90;;;;;;5025212;28;20033;-72
2021/04/10 09:06:47;;;;;;;5.63;3.13;;;10.80;99.90;;;;;;5027566;28;20052;-71
2021/04/10 09:09:12;;;;;;;9.65;3.20;;;10.90;99.90;;;;;;5027776;28;20037;-72
2021/04/10 09:11:40;;;;;;;7.32;2.85;;;11.00;99.90;;;;;;5026249;28;20034;-71
2021/04/10 09:14:06;;;;;;;8.63;3.13;;;11.00;99.90;;;;;;5026527;28;20358;-71
2021/04/10 09:16:47;;;;;;;4.72;3.05;;;11.10;99.90;;;;;;5029431;28;20017;-69
2021/04/10 09:19:27;;;;;;;6.28;3.33;;;11.10;99.90;;;;;;5026207;28;20476;-67
2021/04/10 09:21:59;;;;;;;7.93;3.20;;;11.10;99.90;;;;;;5017784;28;20565;-70
2021/04/10 09:24:46;;;;;;;7.25;3.03;;;11.10;99.90;;;;;;5021792;28;20022;-69
2021/04/10 09:27:23;;;;;;;6.05;3.08;;;11.20;99.90;;;;;;5021427;28;20041;-68
2021/04/10 09:30:05;;;;;;;7.00;3.90;;;11.30;99.90;;;;;;5025425;28;20037;-68
2021/04/10 09:32:44;;;;;;;6.88;3.00;;;11.30;99.90;;;;;;5018848;28;20025;-67
2021/04/10 09:35:15;;;;;;;3.92;2.63;;;11.30;99.90;;;;;;5024393;28;20108;-69
2021/04/10 09:37:41;;;;;;;7.90;3.15;;;11.30;99.90;;;;;;5029812;28;20064;-72
2021/04/10 09:40:17;;;;;;;11.00;3.30;;;11.30;99.90;;;;;;5036692;28;20460;-68
2021/04/10 09:43:03;;;;;;;6.07;3.13;;;11.50;99.90;;;;;;5030752;28;20032;-68
2021/04/10 09:45:34;;;;;;;6.00;2.78;;;11.60;99.90;;;;;;5029459;28;20036;-68
2021/04/10 09:48:03;;;;;;;5.30;2.20;;;11.80;99.90;;;;;;5033384;28;20049;-69
2021/04/10 09:50:46;;;;;;;5.07;2.25;;;11.80;99.70;;;;;;5014737;28;20040;-68
2021/04/10 09:53:17;;;;;;;4.60;2.30;;;11.90;99.60;;;;;;5017131;28;20035;-68
2021/04/10 09:55:56;;;;;;;3.85;2.33;;;11.90;99.50;;;;;;5025711;28;20033;-69
2021/04/10 09:58:21;;;;;;;2.70;1.75;;;11.90;99.90;;;;;;5022763;28;20510;-69
2021/04/10 10:00:49;;;;;;;5.63;2.45;;;12.10;99.30;;;;;;5023732;28;20104;-68
2021/04/10 10:03:18;;;;;;;3.20;1.98;;;12.30;96.00;;;;;;5025700;28;20029;-69
2021/04/10 10:05:50;;;;;;;6.57;2.20;;;12.50;96.40;;;;;;5027066;28;20021;-69
2021/04/10 10:08:20;;;;;;;6.03;2.42;;;12.50;95.80;;;;;;5024904;28;20029;-69
2021/04/10 10:10:54;;;;;;;4.18;2.50;;;12.60;95.90;;;;;;5026953;28;20064;-69
2021/04/10 10:13:24;;;;;;;6.15;2.10;;;12.60;95.40;;;;;;5025890;28;20032;-69
2021/04/10 10:15:52;;;;;;;3.35;2.40;;;12.70;94.70;;;;;;5025376;28;20034;-69
2021/04/10 10:18:19;;;;;;;3.40;2.10;;;12.80;93.90;;;;;;5027328;28;20022;-69
2021/04/10 10:21:02;;;;;;;6.35;2.50;;;13.00;93.10;;;;;;5025985;28;20044;-68
2021/04/10 10:23:30;;;;;;;4.63;1.92;;;13.30;91.20;;;;;;5026214;28;20063;-69
2021/04/10 10:26:07;;;;;;;4.45;1.77;;;13.40;90.20;;;;;;5026505;28;20029;-68
2021/04/10 10:28:34;;;;;;;5.40;2.20;;;13.40;90.10;;;;;;5026045;28;20116;-68
2021/04/10 10:31:07;;;;;;;3.45;1.83;;;13.40;87.20;;;;;;5025463;28;20233;-68
2021/04/10 10:33:33;;;;;;;6.35;2.03;;;13.30;87.80;;;;;;5022613;28;20803;-68
2021/04/10 10:36:00;;;;;;;3.97;2.10;;;13.30;87.90;;;;;;5026316;28;20033;-70
2021/04/10 10:38:30;;;;;;;3.65;1.92;;;13.30;90.60;;;;;;5025769;28;20045;-68
2021/04/10 10:40:56;;;;;;;4.28;2.03;;;13.30;88.30;;;;;;5023771;28;20072;-72
2021/04/10 10:43:24;;;;;;;2.30;1.95;;;13.30;90.20;;;;;;5027263;28;20049;-72
2021/04/10 10:45:52;;;;;;;4.28;1.90;;;13.40;88.30;;;;;;5025852;28;20029;-72
2021/04/10 10:48:29;;;;;;;4.72;2.28;;;13.40;88.20;;;;;;5025750;28;20194;-71
2021/04/10 10:51:00;;;;;;;4.80;2.53;;;13.20;86.20;;;;;;5020374;28;20081;-73
2021/04/10 10:53:30;;;;;;;3.67;2.45;;;13.00;87.80;;;;;;5024746;28;20033;-70
2021/04/10 10:56:17;;;;;;;2.95;1.80;;;12.80;86.90;;;;;;5022864;28;20061;-71
2021/04/10 10:58:52;;;;;;;4.10;2.70;;;12.60;87.20;;;;;;5021244;28;20649;-71
2021/04/10 11:01:32;;;;;;;3.75;2.22;;;12.60;87.10;;;;;;5020922;28;20035;-71
2021/04/10 11:04:22;;;;;;;5.22;2.28;;;12.60;90.20;;;;;;5024354;28;20044;-70
2021/04/10 11:06:52;;;;;;;4.38;2.00;;;12.60;89.90;;;;;;5025641;28;20049;-70
2021/04/10 11:09:27;;;;;;;6.47;2.40;;;12.50;88.60;;;;;;5026870;28;20021;-70
2021/04/10 11:11:56;;;;;;;6.05;2.10;;;12.50;90.10;;;;;;5026087;28;20042;-70
2021/04/10 11:14:25;;;;;;;14.18;7.03;;;12.60;89.90;;;;;;5027139;28;20017;-72
2021/04/10 11:16:52;;;;;;;9.27;4.20;;;12.60;90.00;;;;;;5027283;28;20056;-71
2021/04/10 11:19:33;;;;;;;6.05;2.05;;;12.60;90.40;;;;;;5025278;28;20033;-72
2021/04/10 11:22:00;;;;;;;14.15;7.18;;;12.60;90.00;;;;;;5026265;28;20037;-71
2021/04/10 11:24:38;;;;;;;8.65;4.10;;;12.60;86.90;;;;;;5025892;28;20476;-71
2021/04/10 11:27:17;;;;;;;4.03;2.15;;;12.60;86.20;;;;;;5024752;28;20033;-72
2021/04/10 11:30:03;;;;;;;3.22;1.90;;;12.50;88.30;;;;;;5025674;28;20025;-72
2021/04/10 11:32:39;;;;;;;4.40;2.33;;;12.50;86.80;;;;;;5027176;28;20123;-71
2021/04/10 11:35:15;;;;;;;3.90;1.85;;;12.40;86.90;;;;;;5025512;28;20048;-72
2021/04/10 11:37:44;;;;;;;4.90;2.45;;;12.40;86.50;;;;;;5026872;28;20069;-71
2021/04/10 11:40:23;;;;;;;3.03;2.10;;;12.30;88.20;;;;;;5026674;28;20037;-71
2021/04/10 11:42:55;;;;;;;4.93;2.22;;;12.20;87.20;;;;;;5026357;28;20029;-70
2021/04/10 11:45:46;;;;;;;3.28;1.80;;;12.20;87.90;;;;;;5024265;28;20044;-71
2021/04/10 11:48:23;;;;;;;4.40;2.00;;;12.10;87.10;;;;;;5023582;28;20087;-71
2021/04/10 11:50:52;;;;;;;3.58;2.03;;;12.10;86.10;;;;;;5025065;28;20398;-71
2021/04/10 11:53:26;;;;;;;3.80;1.98;;;12.10;88.00;;;;;;5026306;28;20086;-70
2021/04/10 11:55:56;;;;;;;3.00;1.70;;;12.00;85.90;;;;;;5026272;28;20155;-71
2021/04/10 11:58:33;;;;;;;3.38;1.60;;;12.00;86.10;;;;;;5024715;28;20025;-70
2021/04/10 12:01:17;;;;;;;4.57;1.73;;;12.00;86.80;;;;;;5025703;28;20030;-70
2021/04/10 12:03:46;;;;;;;6.50;1.70;;;12.00;86.30;;;;;;5025598;28;20033;-70
2021/04/10 12:06:34;;;;;;;2.78;1.75;;;12.00;88.10;;;;;;5025156;28;20108;-71
2021/04/10 12:09:08;;;;;;;4.10;1.80;;;12.00;88.40;;;;;;5024787;28;20029;-70
2021/04/10 12:11:34;;;;;;;4.03;1.60;;;12.00;89.20;;;;;;5025341;28;20096;-70
2021/04/10 12:14:06;;;;;;;3.63;1.55;;;12.10;87.60;;;;;;5025657;28;20546;-70
2021/04/10 12:16:33;;;;;;;5.85;2.22;;;12.10;86.50;;;;;;5024328;28;20038;-70
2021/04/10 12:18:59;;;;;;;2.95;1.73;;;12.20;88.40;;;;;;5025797;28;20476;-70
2021/04/10 12:21:24;;;;;;;6.60;1.80;;;12.20;88.70;;;;;;5026129;28;20033;-70
2021/04/10 12:23:50;;;;;;;4.57;1.75;;;12.30;89.10;;;;;;5025408;28;20034;-70
2021/04/10 12:26:16;;;;;;;2.92;1.70;;;12.40;87.20;;;;;;5025358;28;20072;-70
2021/04/10 12:28:42;;;;;;;5.50;1.50;;;12.40;87.10;;;;;;5023958;28;20124;-70
2021/04/10 12:31:10;;;;;;;4.80;2.05;;;12.50;87.90;;;;;;5025072;28;20025;-70
2021/04/10 12:33:44;;;;;;;3.83;1.63;;;12.50;85.00;;;;;;5024943;28;20037;-70
2021/04/10 12:36:10;;;;;;;5.63;2.35;;;12.50;87.00;;;;;;5019674;28;20033;-70
2021/04/10 12:38:36;;;;;;;5.18;2.08;;;12.60;88.60;;;;;;5017327;28;20033;-70
2021/04/10 12:41:03;;;;;;;5.15;1.92;;;12.60;86.40;;;;;;5030559;28;20029;-71
2021/04/10 12:43:28;;;;;;;4.20;1.77;;;12.60;85.40;;;;;;5031401;28;20057;-71
2021/04/10 12:45:54;;;;;;;5.32;2.00;;;12.60;85.90;;;;;;5030235;28;20519;-72
2021/04/10 12:48:25;;;;;;;5.63;1.80;;;12.60;86.00;;;;;;5031757;28;20045;-73
2021/04/10 12:50:51;;;;;;;6.90;2.30;;;12.70;87.70;;;;;;5026917;23;20581;-73
2021/04/10 12:53:16;;;;;;;6.18;1.92;;;12.70;87.70;;;;;;5030560;28;20033;-74
2021/04/10 12:55:48;;;;;;;4.95;2.13;;;12.80;85.90;;;;;;5034311;28;20044;-73
2021/04/10 12:58:14;;;;;;;4.55;1.70;;;12.80;84.90;;;;;;5008024;28;20113;-73
2021/04/10 13:00:39;;;;;;;10.27;2.17;;;12.80;85.10;;;;;;5031060;28;20104;-73
2021/04/10 13:03:05;;;;;;;4.43;1.65;;;12.80;88.20;;;;;;5029448;28;20026;-73